Home > Products > Valid Products > TAF

000
FTUS44 KBMX 262300
TAFTOI
TAF
KTOI 262335Z 2700/2724 29005KT P6SM SKC
     FM270700 22003KT P6SM SKC
     FM271500 30009G18KT P6SM SKC=



000
FTUS44 KBMX 262300
TAFEET
TAF
KEET 262335Z 2700/2724 30005KT P6SM SKC
     FM270300 29003KT P6SM BKN100
     FM270600 26004KT P6SM SCT025 BKN040
      TEMPO 2708/2712 BKN015
     FM271500 33008KT P6SM FEW035=



000
FTUS44 KBMX 262300
TAFTCL
TAF
KTCL 262335Z 2700/2724 26006KT P6SM FEW150
     FM270300 VRB03KT P6SM SKC
     FM271500 33009G18KT P6SM SKC=



000
FTUS44 KBMX 262300
TAFBHM
TAF
KBHM 262335Z 2700/2724 29008KT P6SM SKC
     FM270300 26004KT P6SM BKN100
     FM270600 26004KT P6SM SCT025 BKN040
      TEMPO 2708/2712 BKN015
     FM271500 33010G18KT P6SM SCT030=



000
FTUS44 KBMX 262300
TAFANB
TAF
KANB 262335Z 2700/2724 29009KT P6SM FEW030 SCT250
     FM270300 27004KT P6SM FEW025 BKN080
     FM270800 25003KT P6SM FEW006 BKN015 BKN040
     FM271500 32010G18KT P6SM BKN025=



000
FTUS44 KBMX 262300
TAFMGM
TAF
KMGM 262335Z 2700/2724 29005KT P6SM SKC
     FM270700 22003KT P6SM SKC
     FM271500 30009G18KT P6SM SKC=



000
FTUS44 KBMX 262000 CCA
TAFANB
TAF COR
KANB 262010Z 2620/2718 30012G18KT P6SM BKN030
     FM262300 30008KT P6SM SCT030 SCT250
     FM270300 29004KT P6SM BKN070
     FM270900 22002KT P6SM BKN040=



000
FTUS44 KBMX 262000 AAA
TAFTOI
TAF AMD
KTOI 262010Z 2620/2718 30013G22KT P6SM SCT030
     FM262300 31007KT P6SM SKC
     FM270700 29003KT P6SM SKC=



000
FTUS44 KBMX 262000 AAA
TAFMGM
TAF AMD
KMGM 262009Z 2620/2718 30013G22KT P6SM SCT030
     FM262300 31007KT P6SM SKC
     FM270700 29003KT P6SM SKC=



000
FTUS44 KBMX 262000 AAA
TAFTCL
TAF AMD
KTCL 262008Z 2620/2718 31012G19KT P6SM SCT030
     FM262300 30008KT P6SM SKC
     FM270700 22002KT P6SM BKN040=



000
FTUS44 KBMX 262000 AAA
TAFANB
TAF AMD
KANB 262006Z 2620/2718 30012G18KT P6SM BKN030
     FM262100 30008KT P6SM SCT030 SCT250
     FM270300 29004KT P6SM BKN070
     FM270900 22002KT P6SM BKN040=



000
FTUS44 KBMX 262000 AAA
TAFEET
TAF AMD
KEET 262002Z 2620/2718 32012G18KT P6SM SCT030
     FM262300 30008KT P6SM SKC
     FM270300 30004KT P6SM BKN070
     FM270900 22002KT P6SM BKN040=



000
FTUS44 KBMX 261900 AAA
TAFBHM
TAF AMD
KBHM 261959Z 2620/2718 30012G18KT P6SM SCT030 SCT250
     FM262300 30008KT P6SM SKC
     FM270300 30004KT P6SM BKN070
     FM270900 22002KT P6SM BKN040=



000
FTUS44 KBMX 261700
TAFTOI
TAF
KTOI 261727Z 2618/2718 30013G22KT P6SM BKN025
     FM262200 31007KT P6SM SCT025 SCT250
     FM270700 29003KT P6SM SKC=



000
FTUS44 KBMX 261700
TAFMGM
TAF
KMGM 261727Z 2618/2718 30013G22KT P6SM BKN020
     FM262200 31007KT P6SM SCT025 SCT250
     FM270700 29003KT P6SM SKC=



000
FTUS44 KBMX 261700
TAFTCL
TAF
KTCL 261727Z 2618/2718 33010G18KT P6SM OVC020
     FM262000 29007KT P6SM SCT025 SCT250
     FM270900 22002KT P6SM BKN040=



000
FTUS44 KBMX 261700
TAFBHM
TAF
KBHM 261727Z 2618/2718 32012G18KT P6SM OVC015
     FM262100 31008KT P6SM SCT025 SCT250
     FM270300 30004KT P6SM BKN070
     FM270900 22002KT P6SM BKN040=



000
FTUS44 KBMX 261700
TAFANB
TAF
KANB 261727Z 2618/2718 30012G18KT P6SM OVC015
     FM262100 30008KT P6SM SCT025 SCT250
     FM270300 29004KT P6SM BKN070
     FM270900 22002KT P6SM BKN040=



000
FTUS44 KBMX 261700
TAFEET
TAF
KEET 261727Z 2618/2718 32012G18KT P6SM OVC020
     FM262100 31008KT P6SM SCT025 SCT250
     FM270300 30004KT P6SM BKN070
     FM270900 22002KT P6SM BKN040=



000
FTUS44 KBMX 261500 AAA
TAFTCL
TAF AMD
KTCL 261530Z 2616/2712 33010G18KT P6SM OVC020
     FM262000 29007KT P6SM SCT250
     FM270900 22002KT P6SM BKN040=



000
FTUS44 KBMX 261500 AAB
TAFBHM
TAF AMD
KBHM 261529Z 2615/2712 32012G18KT P6SM OVC015
     FM262100 28008KT P6SM SCT250
     FM270900 22002KT P6SM BKN040=



000
FTUS44 KBMX 261500 AAA
TAFANB
TAF AMD
KANB 261529Z 2615/2712 30012G18KT P6SM OVC015
     FM262100 29007KT P6SM SCT250
     FM270900 22002KT P6SM BKN040=



000
FTUS44 KBMX 261300 AAA
TAFBHM
TAF AMD
KBHM 261342Z 2614/2712 32012G18KT P6SM OVC008
     FM261700 32012G18KT P6SM BKN015
     FM262100 28008KT P6SM SCT250
     FM270900 22002KT P6SM BKN040=



000
FTUS44 KBMX 261100
TAFMGM
TAF
KMGM 261120Z 2612/2712 28012KT P6SM SCT025 OVC035
     FM261300 30012KT P6SM OVC020
     FM261700 30013G22KT P6SM BKN035
     FM262200 31007KT P6SM SKC
     FM270700 29003KT P6SM SKC=



000
FTUS44 KBMX 261100
TAFTOI
TAF
KTOI 261120Z 2612/2712 31012G20KT P6SM BKN025
     FM261700 30013G22KT P6SM BKN035
     FM262200 31007KT P6SM SKC
     FM270700 29003KT P6SM SKC=



000
FTUS44 KBMX 261100
TAFANB
TAF
KANB 261120Z 2612/2712 27012G18KT P6SM OVC015
     FM262100 28007KT P6SM SCT250
     FM270900 22002KT P6SM BKN040=



000
FTUS44 KBMX 261100
TAFTCL
TAF
KTCL 261120Z 2612/2712 30010G18KT P6SM OVC015
     FM262000 29007KT P6SM SCT250
     FM270900 22002KT P6SM BKN040=



000
FTUS44 KBMX 261100
TAFBHM
TAF
KBHM 261120Z 2612/2712 30012G18KT P6SM OVC015
     FM262100 28008KT P6SM SCT250
     FM270900 22002KT P6SM BKN040=



000
FTUS44 KBMX 261100
TAFEET
TAF
KEET 261120Z 2612/2712 30010G18KT P6SM OVC015
     FM262100 29007KT P6SM SCT250
     FM270900 22002KT P6SM BKN040=



000
FTUS44 KBMX 261000 AAA
TAFMGM
TAF AMD
KMGM 261006Z 2610/2706 30012G20KT P6SM OVC060
     FM261100 30012KT P6SM OVC020
     FM261500 30012G19KT P6SM BKN030
     FM262200 31007KT P6SM SKC=



000
FTUS44 KBMX 260800 AAA
TAFTCL
TAF AMD
KTCL 260839Z 2609/2706 28005KT P6SM BKN035 OVC050
      TEMPO 2609/2610 BKN020
     FM261000 30010G18KT P6SM OVC015
     FM262000 29007KT P6SM SKC=



000
FTUS44 KBMX 260800 AAA
TAFTCL
TAF AMD
KTCL 260839Z 2609/2706 28005KT P6SM BKN035 OVC050
      TEMPO 2609/2610 BKN020
     FM261000 30010G18KT P6SM OVC015
     FM262000 29007KT P6SM SKC=



000
FTUS44 KBMX 260800 AAA
TAFANB
TAF AMD
KANB 260837Z 2609/2706 25007KT P6SM OVC020
     FM260930 27012G18KT P6SM OVC015
     FM262100 28007KT P6SM SKC=



000
FTUS44 KBMX 260800 AAA
TAFANB
TAF AMD
KANB 260837Z 2609/2706 25007KT P6SM OVC020
     FM260930 27012G18KT P6SM OVC015
     FM262100 28007KT P6SM SKC=



000
FTUS44 KBMX 260600 AAA
TAFEET
TAF AMD
KEET 260634Z 2607/2706 28005KT P6SM SCT045 OVC060
     FM260730 28005KT P6SM BKN025 OVC040
     FM260830 30010G18KT P6SM OVC012
     FM262100 29007KT P6SM SKC=



000
FTUS44 KBMX 260600 AAA
TAFBHM
TAF AMD
KBHM 260633Z 2607/2706 26009KT P6SM BKN025 OVC050
     FM260800 30012G18KT P6SM OVC012
     FM262100 28008KT P6SM SKC=



000
FTUS44 KBMX 260500
TAFTCL
TAF
KTCL 260538Z 2606/2706 28005KT P6SM BKN035 OVC050
     FM260700 30010G18KT P6SM OVC020
     FM262000 29007KT P6SM SKC=



000
FTUS44 KBMX 260500
TAFTOI
TAF
KTOI 260538Z 2606/2706 30008KT P6SM BKN060
     FM261100 29010KT P6SM OVC020
     FM261500 30012G19KT P6SM BKN030
     FM262200 31007KT P6SM SKC=



000
FTUS44 KBMX 260500
TAFMGM
TAF
KMGM 260538Z 2606/2706 30007KT P6SM OVC060
     FM261000 30010KT P6SM OVC020
     FM261500 30012G19KT P6SM BKN030
     FM262200 31007KT P6SM SKC=



000
FTUS44 KBMX 260500
TAFBHM
TAF
KBHM 260538Z 2606/2706 26009KT P6SM OVC060
     FM260800 30012G18KT P6SM OVC020
     FM262100 28008KT P6SM SKC=



000
FTUS44 KBMX 260500
TAFANB
TAF
KANB 260538Z 2606/2706 25007KT P6SM OVC080
     FM260900 27012G18KT P6SM OVC020
     FM262100 28007KT P6SM SKC=



000
FTUS44 KBMX 260500
TAFEET
TAF
KEET 260538Z 2606/2706 28005KT P6SM SCT045 OVC060
     FM260800 30010G18KT P6SM OVC020
     FM262100 29007KT P6SM SKC=



000
FTUS44 KBMX 252300
TAFBHM
TAF
KBHM 252339Z 2600/2624 23012G20KT 6SM SHRA VCTS SCT045CB BKN060
      BKN110
     FM260100 29009KT P6SM SCT045 OVC060
      TEMPO 2603/2605 6SM SHRA BKN045 OVC070
     FM261100 31010G17KT P6SM OVC020
     FM262100 28007KT P6SM SKC=



000
FTUS44 KBMX 252300
TAFEET
TAF
KEET 252339Z 2600/2624 21010G17KT 6SM SHRA VCTS SCT045CB BKN060
      BKN110
     FM260200 29007KT P6SM SCT045 OVC060
      TEMPO 2604/2606 6SM SHRA BKN045 OVC070
     FM261200 31010G17KT P6SM OVC020
     FM262100 28007KT P6SM SKC=



000
FTUS44 KBMX 252300
TAFANB
TAF
KANB 252339Z 2600/2624 24008G15KT P6SM BKN090 OVC110
     FM260100 23010KT 6SM SHRA VCTS SCT045CB BKN060 BKN110
     FM260230 29007KT P6SM SCT045 OVC060
      TEMPO 2605/2607 6SM SHRA BKN045 OVC070
     FM261200 28012G18KT P6SM OVC020
     FM262100 28007KT P6SM SKC=



000
FTUS44 KBMX 252300
TAFTOI
TAF
KTOI 252339Z 2600/2624 20009KT P6SM SCT120
     FM260400 27008KT P6SM OVC100
     FM261100 28008KT P6SM OVC020
     FM261500 30012G18KT P6SM BKN030=



000
FTUS44 KBMX 252300
TAFMGM
TAF
KMGM 252339Z 2600/2624 21008KT P6SM SCT120
     FM260300 27008KT P6SM BKN100
     FM261000 28008KT P6SM OVC020
     FM261500 30012G18KT P6SM BKN030=



000
FTUS44 KBMX 252300
TAFTCL
TAF
KTCL 252339Z 2600/2624 23007G17KT P6SM BKN070 OVC090
      TEMPO 2602/2604 6SM SHRA BKN045 OVC070
     FM261000 30009G15KT P6SM OVC020
     FM262000 29007KT P6SM SKC=



000
FTUS44 KBMX 252200 AAA
TAFTCL
TAF AMD
KTCL 252244Z 2523/2618 22012G23KT P6SM SHRA VCTS SCT045CB BKN080
      OVC090
     FM260000 28008KT P6SM SCT025 OVC080
      TEMPO 2601/2603 6SM SHRA BKN045 OVC070
     FM260800 30009G15KT 6SM BR OVC025=



000
FTUS44 KBMX 251900 CCA
TAFBHM
TAF COR
KBHM 251958Z 2520/2618 19015G24KT P6SM SKC
     FM252200 21014G20KT P6SM SCT045 SCT120
      TEMPO 2522/2523 -RA
     FM260200 28009KT 6SM -RA BR SCT025 OVC050
     FM260900 30010G16KT 6SM BR OVC025=



000
FTUS44 KBMX 251900 AAA
TAFBHM
TAF AMD
KBHM 251957Z 2520/2618 19012KT P6SM SKC
     FM252000 21014G20KT P6SM SCT045 SCT120
      TEMPO 2522/2523 -RA
     FM260200 28009KT 6SM -RA BR SCT025 OVC050
     FM260900 30010G16KT 6SM BR OVC025=



000
FTUS44 KBMX 251700
TAFEET
TAF
KEET 251739Z 2518/2618 18010KT P6SM SKC
     FM252000 21010G17KT P6SM SCT045 SCT120
     FM260300 28007KT 6SM -RA BR SCT025 OVC050
     FM260900 30009KT 6SM BR OVC025=



000
FTUS44 KBMX 251700
TAFBHM
TAF
KBHM 251739Z 2518/2618 19012KT P6SM SKC
     FM252000 21014G20KT P6SM SCT045 SCT120
     FM260200 28009KT 6SM -RA BR SCT025 OVC050
     FM260900 30010G16KT 6SM BR OVC025=



000
FTUS44 KBMX 251700
TAFTOI
TAF
KTOI 251739Z 2518/2618 21013KT P6SM SKC
     FM252300 22010KT P6SM SCT120
     FM260400 26008KT P6SM OVC100
     FM260700 28008KT P6SM OVC050
     FM260900 30010KT P6SM OVC025=



000
FTUS44 KBMX 251700
TAFMGM
TAF
KMGM 251739Z 2518/2618 20010G18KT P6SM SKC
     FM252230 22010KT P6SM SCT120
     FM260300 26008KT P6SM OVC100
     FM260600 28008KT P6SM OVC050
     FM260900 30010KT P6SM OVC025=



000
FTUS44 KBMX 251700
TAFANB
TAF
KANB 251739Z 2518/2618 22011G15KT P6SM SKC
     FM252030 22012G17KT P6SM SCT045 SCT120
     FM260300 27007KT 6SM -RA BR SCT025 OVC050
     FM261000 27009KT 6SM BR OVC025=



000
FTUS44 KBMX 251700
TAFTCL
TAF
KTCL 251739Z 2518/2618 20011KT P6SM SKC
     FM251930 22012G18KT P6SM SCT045 SCT120
     FM260100 28008KT 6SM -RA BR SCT025 OVC050
     FM260800 30009G15KT 6SM BR OVC025=



000
FTUS44 KBMX 251100
TAFMGM
TAF
KMGM 251120Z 2512/2612 20006KT P6SM SCT250
     FM251800 21010G18KT P6SM SCT040 BKN120
     FM260300 24006KT P6SM OVC100
     FM260600 28008KT P6SM OVC050=



000
FTUS44 KBMX 251100
TAFTOI
TAF
KTOI 251120Z 2512/2612 21006KT P6SM SCT250
     FM251800 21010G18KT P6SM SCT040 BKN120
     FM260300 24006KT P6SM OVC100
     FM260600 28008KT P6SM OVC050=



000
FTUS44 KBMX 251100
TAFBHM
TAF
KBHM 251120Z 2512/2612 20006KT P6SM SCT250
     FM251800 22011G18KT P6SM SCT040 BKN120
     FM260200 26006KT 4SM RA BKN025 OVC050
     FM260900 30010KT 6SM BR OVC025=



000
FTUS44 KBMX 251100
TAFANB
TAF
KANB 251120Z 2512/2612 20006KT P6SM SCT250
     FM251800 20011G18KT P6SM SCT040 BKN120
     FM260200 24005KT 4SM RA BKN025 OVC050
     FM261000 30010KT 6SM BR OVC025=



000
FTUS44 KBMX 251100
TAFEET
TAF
KEET 251120Z 2512/2612 20006KT P6SM SCT250
     FM251800 20011G18KT P6SM SCT040 BKN120
     FM260300 26006KT 4SM RA BKN025 OVC050
     FM260900 30010KT 6SM BR OVC025=



000
FTUS44 KBMX 251100
TAFTCL
TAF
KTCL 251120Z 2512/2612 20006KT P6SM SCT250
     FM251800 22011G18KT P6SM SCT040 BKN120
     FM260100 26006KT 4SM RA BKN025 OVC050
     FM260800 30010KT 6SM BR OVC025=



000
FTUS44 KBMX 250500
TAFTOI
TAF
KTOI 250536Z 2506/2606 00000KT P6SM SCT250
     FM251100 00000KT P6SM SCT015
     FM251400 21006KT P6SM SCT250
     FM251800 21010G18KT P6SM SCT040 BKN120=



000
FTUS44 KBMX 250500
TAFBHM
TAF
KBHM 250536Z 2506/2606 00000KT P6SM SKC
     FM251100 20003KT P6SM SCT015
     FM251500 20006KT P6SM SCT250
     FM251800 22011G18KT P6SM SCT040 BKN120=



000
FTUS44 KBMX 250500
TAFTCL
TAF
KTCL 250536Z 2506/2606 00000KT P6SM SKC
     FM250900 18002KT P6SM SCT015
     FM251500 20007KT P6SM SCT250
     FM251800 21010G18KT P6SM SCT040 BKN120=



000
FTUS44 KBMX 250500
TAFANB
TAF
KANB 250536Z 2506/2606 00000KT P6SM SKC
     FM251100 VRB03KT P6SM SCT015
     FM251500 21005KT P6SM SCT250
     FM251800 22011G18KT P6SM SCT040 BKN120=



000
FTUS44 KBMX 250500
TAFMGM
TAF
KMGM 250536Z 2506/2606 00000KT P6SM SCT250
     FM251100 20003KT P6SM SCT015
     FM251400 20006KT P6SM SCT250
     FM251800 21010G18KT P6SM SCT040 BKN120=



000
FTUS44 KBMX 250500
TAFEET
TAF
KEET 250536Z 2506/2606 00000KT P6SM SKC
     FM251000 00000KT P6SM SCT015
     FM251500 20005KT P6SM SCT250
     FM251800 21011G18KT P6SM SCT040 BKN120=



000
FTUS44 KBMX 242300
TAFEET
TAF
KEET 242323Z 2500/2524 26003KT P6SM SKC
     FM251000 00000KT P6SM SCT015
     FM251500 20005KT P6SM SCT250
     FM251800 21011G18KT P6SM SCT040 BKN120=



000
FTUS44 KBMX 242300
TAFBHM
TAF
KBHM 242323Z 2500/2524 27005KT P6SM SKC
     FM251100 22003KT P6SM SCT015
     FM251500 20006KT P6SM SCT250
     FM251800 22011G18KT P6SM SCT040 BKN120=



000
FTUS44 KBMX 242300
TAFANB
TAF
KANB 242323Z 2500/2524 25005KT P6SM SKC
     FM251100 VRB03KT P6SM SCT015
     FM251500 21005KT P6SM SCT250
     FM251800 22011G18KT P6SM SCT040 BKN120=



000
FTUS44 KBMX 242300
TAFTCL
TAF
KTCL 242323Z 2500/2524 24004KT P6SM SKC
     FM250900 18002KT P6SM SCT015
     FM251500 20007KT P6SM SCT250
     FM251800 21010G18KT P6SM SCT040 BKN120=



000
FTUS44 KBMX 242300
TAFMGM
TAF
KMGM 242323Z 2500/2524 25004KT P6SM SCT250
     FM251100 20003KT P6SM SCT015
     FM251400 20006KT P6SM SCT250
     FM251800 21010G18KT P6SM SCT040 BKN120=



000
FTUS44 KBMX 242300
TAFTOI
TAF
KTOI 242323Z 2500/2524 27004KT P6SM SCT250
     FM251100 00000KT P6SM SCT015
     FM251400 21006KT P6SM SCT250
     FM251800 21010G18KT P6SM SCT040 BKN120=



000
FTUS44 KBMX 241700
TAFTCL
TAF
KTCL 241726Z 2418/2518 27007KT P6SM SCT015
     FM250000 21003KT P6SM SKC
     FM250900 20002KT P6SM SCT015
     FM251500 21007KT P6SM SCT250=



000
FTUS44 KBMX 241700
TAFMGM
TAF
KMGM 241726Z 2418/2518 29010G18KT P6SM FEW025
     FM242300 26004KT P6SM SCT250
     FM251500 20008KT P6SM SCT250=



000
FTUS44 KBMX 241700
TAFBHM
TAF
KBHM 241726Z 2418/2518 26009KT P6SM SCT015
     FM250000 23004KT P6SM SKC
     FM250900 21003KT P6SM SCT015
     FM251500 21007KT P6SM SCT250=



000
FTUS44 KBMX 241700
TAFEET
TAF
KEET 241726Z 2418/2518 29008KT P6SM SCT015
     FM250000 00000KT P6SM SKC
     FM250900 00000KT P6SM SCT015
     FM251500 19006KT P6SM SCT250=



000
FTUS44 KBMX 241700
TAFTOI
TAF
KTOI 241726Z 2418/2518 30012G20KT P6SM SCT015
     FM242300 27004KT P6SM SCT250
     FM251500 22008KT P6SM SCT250=



000
FTUS44 KBMX 241700
TAFANB
TAF
KANB 241726Z 2418/2518 27010G17KT P6SM FEW025
     FM242300 26004KT P6SM SKC
     FM251200 21005KT P6SM SCT015=



000
FTUS44 KBMX 241600 AAA
TAFEET
TAF AMD
KEET 241658Z 2417/2512 30007KT P6SM SCT015
     FM250000 23005KT P6SM SKC
     FM250900 19003KT P6SM SCT015=



000
FTUS44 KBMX 241600 AAC
TAFMGM
TAF AMD
KMGM 241612Z 2416/2512 29010G18KT P6SM BKN022
     FM241730 29010G18KT P6SM SCT025
     FM250300 00000KT P6SM SKC=



000
FTUS44 KBMX 241500 AAA
TAFTCL
TAF AMD
KTCL 241528Z 2415/2512 31008KT P6SM BKN010
     FM241730 26007KT P6SM SCT015
     FM242300 23005KT P6SM SKC
     FM250900 19003KT P6SM SCT015=



000
FTUS44 KBMX 241500 AAB
TAFANB
TAF AMD
KANB 241526Z 2415/2512 29010G15KT P6SM SCT025
     FM241900 27006KT P6SM SCT015
     FM250000 23005KT P6SM SKC
     FM250900 19003KT P6SM SCT015=



000
FTUS44 KBMX 241500 AAA
TAFTOI
TAF AMD
KTOI 241500Z 2415/2512 31010G15KT P6SM SCT015
     FM241900 30010KT P6SM SCT015
     FM250300 00000KT P6SM SKC=



000
FTUS44 KBMX 241300 AAB
TAFMGM
TAF AMD
KMGM 241338Z 2414/2512 31010G18KT P6SM SCT015
     FM250300 00000KT P6SM SKC=



000
FTUS44 KBMX 241100 AAA
TAFMGM
TAF AMD
KMGM 241157Z 2412/2512 29011KT P6SM OVC012
     FM241700 29009KT P6SM SCT015
     FM250300 00000KT P6SM SKC=



000
FTUS44 KBMX 241100 AAA
TAFANB
TAF AMD
KANB 241156Z 2412/2512 28009KT 6SM -DZ OVC012
     FM241900 27006KT P6SM SCT015
     FM250000 23005KT P6SM SKC
     FM250900 19003KT P6SM SCT015=



000
FTUS44 KBMX 241100
TAFBHM
TAF
KBHM 241120Z 2412/2512 30011KT P6SM -DZ OVC007
     FM241400 31009KT P6SM OVC015
     FM241800 26007KT P6SM SCT015
     FM250000 23005KT P6SM SKC
     FM250900 19003KT P6SM SCT015=



000
FTUS44 KBMX 241100
TAFMGM
TAF
KMGM 241120Z 2412/2512 29011KT P6SM OVC012
      TEMPO 2412/2414 3SM -RA BKN007 OVC010
     FM241900 29009KT P6SM SCT015
     FM250300 00000KT P6SM SKC=



000
FTUS44 KBMX 241100
TAFANB
TAF
KANB 241120Z 2412/2512 28009KT 6SM -RA OVC012
      TEMPO 2412/2413 3SM RA BR OVC007
     FM241900 27006KT P6SM SCT015
     FM250000 23005KT P6SM SKC
     FM250900 19003KT P6SM SCT015=



000
FTUS44 KBMX 241100
TAFEET
TAF
KEET 241120Z 2412/2512 30010KT P6SM OVC010
     FM241400 31009KT P6SM OVC015
     FM241800 26007KT P6SM SCT015
     FM250000 23005KT P6SM SKC
     FM250900 19003KT P6SM SCT015=



000
FTUS44 KBMX 241100
TAFTOI
TAF
KTOI 241120Z 2412/2512 30015G20KT P6SM OVC007
     FM241400 31011KT P6SM OVC015
     FM241900 30010KT P6SM SCT015
     FM250300 00000KT P6SM SKC=



000
FTUS44 KBMX 241100
TAFTCL
TAF
KTCL 241120Z 2412/2512 31008KT P6SM BKN012
     FM241600 26007KT P6SM SCT015
     FM242300 23005KT P6SM SKC
     FM250900 19003KT P6SM SCT015=



000
FTUS44 KBMX 241000 AAB
TAFBHM
TAF AMD
KBHM 241058Z 2411/2506 31008G15KT 3SM RA BR BKN006 OVC012
     FM241300 31009KT P6SM OVC015
     FM242000 27006KT P6SM SCT015=



000
FTUS44 KBMX 240800 AAA
TAFMGM
TAF AMD
KMGM 240814Z 2408/2506 27012KT 4SM BR OVC008
      TEMPO 2411/2414 3SM -RA BKN007 OVC010
     FM241400 29010KT P6SM OVC015
     FM241900 29009KT P6SM SCT015=



000
FTUS44 KBMX 240800 AAA
TAFBHM
TAF AMD
KBHM 240812Z 2408/2506 31008G15KT 3SM RA BR BKN006 OVC012
      TEMPO 2410/2412 1SM RA BR OVC004
     FM241300 31009KT P6SM OVC015
     FM242000 27006KT P6SM SCT015=



000
FTUS44 KBMX 240800 AAA
TAFTCL
TAF AMD
KTCL 240808Z 2408/2506 31010G16KT 5SM -RA BR SCT007 OVC012
      TEMPO 2409/2411 2SM -RA BR OVC006
     FM241300 31008KT P6SM OVC010
     FM241900 26007KT P6SM SCT015=



000
FTUS44 KBMX 240800 AAA
TAFEET
TAF AMD
KEET 240804Z 2408/2506 31008G15KT 4SM -RA BR OVC005
     FM241400 31007KT P6SM OVC015
     FM242000 28006KT P6SM SCT015=



000
FTUS44 KBMX 240500 RRA
TAFTOI
TAF
KTOI 240541Z 2406/2506 29008KT 4SM BR OVC005
      TEMPO 2407/2411 3SM -RA OVC003
     FM241400 31011KT P6SM OVC015
     FM241900 30010KT P6SM SCT015=



000
FTUS44 KBMX 240500 RRA
TAFTCL
TAF
KTCL 240541Z 2406/2506 31011G17KT 5SM -RA BR OVC006
      TEMPO 2406/2410 2SM -RA BR OVC003
     FM241300 31008KT P6SM OVC010
     FM241900 26007KT P6SM SCT015=



000
FTUS44 KBMX 240500 RRA
TAFMGM
TAF
KMGM 240541Z 2406/2506 27012KT 4SM BR OVC006
      TEMPO 2407/2411 3SM -RA OVC003
     FM241400 29010KT P6SM OVC015
     FM241900 29009KT P6SM SCT015=



000
FTUS44 KBMX 240500 RRA
TAFBHM
TAF
KBHM 240541Z 2406/2506 32008KT 5SM -DZ BR OVC005
     FM240800 31008G15KT 3SM RA BR BKN008 OVC012
      TEMPO 2408/2411 1SM RA BR OVC004
     FM241300 31009KT P6SM OVC015
     FM242000 27006KT P6SM SCT015=



000
FTUS44 KBMX 240500 RRA
TAFANB
TAF
KANB 240541Z 2406/2506 30003KT 4SM -RA BR BKN007 OVC010
     FM240900 31008G15KT 3SM RA BR BKN008 OVC012
      TEMPO 2409/2413 2SM RA BR OVC003
     FM241400 30010KT P6SM OVC015
     FM242100 27006KT P6SM SCT015=



000
FTUS44 KBMX 240500 RRA
TAFEET
TAF
KEET 240541Z 2406/2506 30006KT 4SM -RA BR OVC005
     FM240800 31008G15KT 3SM RA BR BKN008 OVC012
      TEMPO 2408/2412 1SM RA BR OVC004
     FM241400 31007KT P6SM OVC015
     FM242000 28006KT P6SM SCT015=



    US Dept of Commerce
    National Oceanic and Atmospheric Administration
    National Weather Service
    1325 East West Highway
    Silver Spring, MD 20910
    Page Author: NWS Internet Services Team
Disclaimer
Information Quality
Credits
Glossary
Privacy Policy
Freedom of Information Act (FOIA)
About Us
Career Opportunities